Data for 05/18/2009

Time Sea-Level Adjusted Pressure Absolute Pressure Temperature Relative Humidity Dew Point   
(mb) (inHg) (mb) (inHg) (C) (F) (%) (C) (F)
00:05 1020 30.12 849 25.07 14.9 58.9 31 -1.9 28.6
00:10 1020 30.12 849 25.07 15.1 59.1 32 -1.5 29.3
00:15 1020 30.12 849 25.07 15 58.9 32 -1.6 29.1
00:20 1020 30.12 849 25.07 14.8 58.6 32 -1.5 29.3
00:25 1020 30.12 849 25.07 14.7 58.4 32 -1.6 29.2
00:30 1020 30.12 849 25.07 14.6 58.3 32 -1.6 29
00:35 1020 30.12 849 25.07 14.4 58 34 -1.1 30
00:40 1020 30.12 849 25.07 14.2 57.5 34 -1.3 29.6
00:45 1020 30.12 849 25.07 14.2 57.5 34 -1.5 29.3
00:50 1020 30.12 849 25.07 14.1 57.3 35 -1.3 29.7
00:55 1020 30.12 849 25.07 13.9 57.1 35 -1.1 29.9
01:00 1020 30.12 849 25.07 13.8 56.8 35 -1.2 29.8
01:05 1020 30.12 849 25.07 13.7 56.7 35 -1.4 29.4
01:10 1020 30.12 849 25.07 13.7 56.7 35 -1.5 29.2
01:15 1020 30.12 849 25.07 13.9 56.9 34 -1.6 29.1
01:20 1020 30.12 849 25.07 13.9 56.9 34 -1.7 28.9
01:25 1020 30.12 849 25.07 14 57.3 33 -2 28.4
01:30 1020 30.12 849 25.07 14.2 57.5 32 -2.1 28.3
01:35 1020 30.12 849 25.07 14.4 57.8 32 -2 28.3
01:40 1020 30.12 849 25.07 14.4 57.9 32 -2.1 28.3
01:45 1020 30.12 849 25.07 14.4 57.8 33 -1.8 28.7
01:50 1020 30.12 849 25.07 14.1 57.4 34 -1.6 29
01:55 1020 30.12 849 25.07 13.9 57.1 33 -2 28.4
02:00 1020 30.12 849 25.07 14 57.2 33 -1.8 28.8
02:05 1020 30.12 849 25.07 14 57.1 34 -1.7 29
02:10 1020 30.12 849 25.07 13.9 56.9 35 -1.2 29.9
02:15 1020 30.12 849 25.07 13.7 56.7 36 -1.1 30.1
02:20 1020 30.12 849 25.07 13.3 56 38 -0.4 31.2
02:25 1020 30.12 849 25.07 13.2 55.7 38 -0.9 30.4
02:30 1020 30.12 849 25.07 13.2 55.8 38 -0.9 30.4
02:35 1020 30.12 849 25.07 13.4 56.1 37 -1.1 30.1
02:40 1020 30.12 849 25.07 13.3 56 37 -0.9 30.4
02:45 1020 30.12 849 25.07 13 55.5 38 -0.8 30.6
02:50 1020 30.12 849 25.07 13 55.4 38 -0.8 30.6
02:55 1020 30.12 849 25.07 13.2 55.7 37 -0.9 30.3
03:00 1020 30.12 849 25.07 13.1 55.5 39 -0.4 31.3
03:05 1020 30.12 849 25.07 12.6 54.7 41 -0.1 31.9
03:10 1020 30.12 849 25.07 12.4 54.4 41 -0.4 31.3
03:15 1020 30.12 849 25.07 12.4 54.3 42 -0.1 31.8
03:20 1020 30.12 849 25.07 12.4 54.3 42 -0.2 31.6
03:25 1020 30.12 849 25.07 12.5 54.5 40 -0.7 30.8
03:30 1020 30.12 849 25.07 12.8 55 40 -0.6 31
03:35 1020 30.12 849 25.07 12.9 55.2 40 -0.4 31.3
03:40 1020 30.12 849 25.07 12.9 55.2 40 -0.3 31.4
03:45 1020 30.12 849 25.07 13 55.4 40 -0.1 31.8
03:50 1020 30.12 849 25.07 12.7 54.9 42 0.1 32.1
03:55 1020 30.12 849 25.07 12.7 54.8 41 -0 32
04:00 1020 30.12 849 25.07 12.7 54.9 41 -0.2 31.7
04:05 1019 30.09 849 25.07 12.8 55.1 41 0.1 32.1
04:10 1019 30.09 849 25.07 12.7 54.8 42 0.3 32.6
04:15 1020 30.12 849 25.07 12.5 54.4 42 -0 32
04:20 1020 30.12 849 25.07 12.8 55 41 0 32.1
04:25 1019 30.09 849 25.07 12.9 55.2 41 -0.1 31.9
04:30 1019 30.09 849 25.07 12.7 54.8 42 0 32.1
04:35 1019 30.09 849 25.07 12.6 54.6 42 0.1 32.1
04:40 1019 30.09 849 25.07 12.4 54.4 42 0 32.1
04:45 1019 30.09 849 25.07 12.5 54.5 41 -0.2 31.6
04:50 1019 30.09 849 25.07 12.8 55 41 0 32
04:55 1019 30.09 849 25.07 12.9 55.2 41 -0 32
05:00 1019 30.09 849 25.07 12.8 55 42 0.2 32.3
05:05 1019 30.09 849 25.07 12.6 54.7 43 0.3 32.6
05:10 1019 30.09 849 25.07 12.2 53.9 44 0.5 32.8
05:15 1019 30.09 849 25.07 12.4 54.4 42 -0 31.9
05:20 1019 30.09 849 25.07 12.8 55.1 41 -0.1 31.9
05:25 1019 30.09 849 25.07 12.9 55.3 41 -0 32
05:30 1019 30.09 849 25.07 12.7 54.8 43 0.5 33
05:35 1019 30.09 849 25.07 12.1 53.8 45 0.6 33
05:40 1019 30.09 849 25.07 11.8 53.3 45 0.3 32.6
05:45 1019 30.09 849 25.07 11.8 53.2 45 0.4 32.8
05:50 1019 30.09 849 25.07 11.7 53.1 46 0.5 32.8
05:55 1019 30.09 849 25.07 11.7 53.1 45 0.2 32.4
06:00 1019 30.09 849 25.07 12.2 54 42 -0.2 31.7
06:05 1019 30.09 849 25.07 12.4 54.2 44 0.4 32.6
06:10 1019 30.09 849 25.07 12 53.7 45 0.5 32.9
06:15 1019 30.09 849 25.07 12 53.6 44 0 32
06:20 1019 30.09 849 25.07 12.5 54.5 41 -0.4 31.3
06:25 1019 30.09 849 25.07 12.8 55 42 0.3 32.6
06:30 1019 30.09 849 25.07 12.6 54.6 42 0.2 32.3
06:35 1019 30.09 849 25.07 12.5 54.5 43 0.3 32.6
06:40 1019 30.09 849 25.07 12.4 54.3 43 0.2 32.4
06:45 1019 30.09 849 25.07 12.5 54.5 43 0.4 32.8
06:50 1019 30.09 849 25.07 12.5 54.4 44 0.7 33.2
06:55 1019 30.09 848 25.04 12.3 54.2 45 0.7 33.3
07:00 1019 30.09 848 25.04 12.5 54.5 43 0.4 32.8
07:05 1019 30.09 848 25.04 13 55.4 43 0.6 33.1
07:10 1019 30.09 848 25.04 13.4 56.1 41 0.6 33.1
07:15 1019 30.09 848 25.04 13.6 56.5 41 0.8 33.4
07:20 1019 30.09 848 25.04 13.8 56.8 40 0.5 32.9
07:25 1019 30.09 848 25.04 14 57.2 40 0.7 33.2
07:30 1019 30.09 848 25.04 14.3 57.7 39 0.7 33.3
07:35 1019 30.09 848 25.04 14.4 58 40 1 33.7
07:40 1019 30.09 848 25.04 14.8 58.6 37 0.5 32.9
07:45 1019 30.09 848 25.04 15.2 59.3 38 0.9 33.7
07:50 1019 30.09 848 25.04 15.6 60.1 36 0.6 33.1
07:55 1019 30.09 848 25.04 15.9 60.7 34 0.4 32.7
08:00 1019 30.09 848 25.04 16.4 61.5 33 0.4 32.6
08:05 1019 30.09 848 25.04 16.8 62.2 34 1 33.8
08:10 1019 30.09 848 25.04 17.3 63.2 32 0.7 33.3
08:15 1019 30.09 848 25.04 17.8 64.1 31 0.7 33.2
08:20 1019 30.09 848 25.04 18.4 65.1 31 1.1 34
08:25 1019 30.09 848 25.04 18.6 65.5 31 1.3 34.3
08:30 1019 30.09 848 25.04 19 66.1 31 1.5 34.7
08:35 1019 30.09 848 25.04 19.5 67.2 30 1.6 34.8
08:40 1019 30.09 848 25.04 19.7 67.4 29 1.4 34.4
08:45 1019 30.09 848 25.04 19.9 67.9 29 1.7 35
08:50 1019 30.09 848 25.04 20.7 69.2 28 1.5 34.8
08:55 1019 30.09 848 25.04 21.1 69.9 28 2.1 35.7
09:00 1019 30.09 848 25.04 20.8 69.5 30 2.9 37.3
09:05 1019 30.09 848 25.04 20.5 68.9 31 3 37.3
09:10 1019 30.09 848 25.04 20.1 68.3 29 1.5 34.7
09:15 1019 30.09 848 25.04 19.6 67.2 29 1 33.9
09:20 1019 30.09 848 25.04 20.1 68.1 29 1.4 34.6
09:25 1019 30.09 848 25.04 19.9 67.9 29 1.3 34.4
09:30 1019 30.09 848 25.04 19.6 67.3 30 1.9 35.4
09:35 1019 30.09 848 25.04 20.1 68.1 29 1.5 34.6
09:40 1019 30.09 848 25.04 20.5 68.8 28 1.5 34.8
09:45 1019 30.09 848 25.04 19.4 66.9 31 2 35.7
09:50 1019 30.09 848 25.04 19.1 66.4 34 3 37.4
09:55 1019 30.09 848 25.04 19.5 67 35 3.7 38.6
10:00 1019 30.09 848 25.04 19.3 66.8 36 4 39.2
10:05 1019 30.09 848 25.04 19.5 67.2 35 4 39.1
10:10 1019 30.09 848 25.04 19.8 67.6 35 3.9 39.1
10:15 1019 30.09 848 25.04 19.5 67.2 33 2.9 37.3
10:20 1019 30.09 848 25.04 20.8 69.4 30 2.7 36.9
10:25 1019 30.09 848 25.04 21.1 70 28 2 35.6
10:30 1019 30.09 848 25.04 21.5 70.7 28 2.6 36.7
10:35 1019 30.09 848 25.04 20.6 69.1 30 2.6 36.7
10:40 1019 30.09 848 25.04 20.8 69.5 28 1.8 35.3
10:45 1018 30.06 848 25.04 21.3 70.4 27 1.7 35
10:50 1018 30.06 848 25.04 23 73.4 24 1.7 35
10:55 1018 30.06 848 25.04 24.2 75.6 22 1.2 34.2
11:00 1018 30.06 847 25.01 24.7 76.5 21 1.4 34.6
11:05 1018 30.06 847 25.01 23.6 74.5 24 1.9 35.4
11:10 1018 30.06 847 25.01 22.9 73.3 23 0.9 33.6
11:15 1018 30.06 847 25.01 24.3 75.8 22 1.2 34.2
11:20 1018 30.06 847 25.01 25.6 78.1 20 1.1 33.9
11:25 1018 30.06 847 25.01 26.2 79.2 19 1.2 34.2
11:30 1018 30.06 847 25.01 25.2 77.3 20 1.1 34
11:35 1018 30.06 847 25.01 26.2 79.1 17 -0.9 30.4
11:40 1018 30.06 847 25.01 26.5 79.8 16 -1.4 29.5
11:45 1018 30.06 847 25.01 25.6 78.1 15 -2.3 27.9
11:50 1018 30.06 847 25.01 25.8 78.5 15 -2.5 27.5
11:55 1018 30.06 847 25.01 25.5 77.9 18 -0.6 31
12:00 1018 30.06 847 25.01 26.1 79.1 19 0.7 33.3
12:05 1017 30.03 847 25.01 27 80.6 17 0.2 32.4
12:10 1017 30.03 847 25.01 26.5 79.7 19 1.1 34
12:15 1017 30.03 847 25.01 26.5 79.8 18 0.9 33.6
12:20 1017 30.03 846 24.98 26.6 80 19 1.4 34.5
12:25 1017 30.03 846 24.98 27.6 81.7 15 -1 30.2
12:30 1017 30.03 846 24.98 27.9 82.2 17 0.6 33
12:35 1017 30.03 846 24.98 29 84.2 14 -0.6 31
12:40 1017 30.03 846 24.98 29.2 84.5 15 0 32.1
12:45 1017 30.03 846 24.98 28.2 82.7 16 0 32
12:50 1017 30.03 846 24.98 28.4 83.1 17 1 33.8
12:55 1017 30.03 846 24.98 28.8 83.8 15 0 32.1
13:00 1017 30.03 846 24.98 29.8 85.6 15 0.4 32.8
13:05 1017 30.03 846 24.98 30.1 86.2 15 0.8 33.5
13:10 1017 30.03 846 24.98 30.1 86.2 14 -0.4 31.2
13:15 1016 30 846 24.98 29.2 84.6 15 0.4 32.7
13:20 1016 30 846 24.98 29.3 84.7 16 0.8 33.5
13:25 1016 30 846 24.98 29.9 85.8 16 1.5 34.6
13:30 1016 30 846 24.98 29.4 85 16 1.7 35.1
13:35 1016 30 845 24.95 30.1 86.2 15 0.7 33.2
13:40 1016 30 845 24.95 30.3 86.5 13 -0.3 31.4
13:45 1016 30 845 24.95 30.3 86.5 15 0.8 33.4
13:50 1016 30 845 24.95 30.8 87.4 14 0.2 32.3
13:55 1016 30 845 24.95 29.9 85.9 13 -0.7 30.7
14:00 1016 30 845 24.95 29.7 85.4 13 -1.1 30.1
14:05 1016 30 845 24.95 29.4 85 14 -0.5 31.2
14:10 1016 30 845 24.95 30 85.9 14 0.2 32.3
14:15 1016 30 845 24.95 29.5 85 14 -0.5 31.2
14:20 1016 30 845 24.95 29.2 84.5 15 0.2 32.4
14:25 1016 30 845 24.95 29.3 84.8 14 -0.7 30.8
14:30 1016 30 845 24.95 28.6 83.5 14 -0.7 30.7
14:35 1016 30 845 24.95 28.1 82.5 15 -0.6 31
14:40 1016 30 845 24.95 27.5 81.5 15 -1 30.1
14:45 1015 29.97 845 24.95 27.7 81.8 17 0.7 33.2
14:50 1015 29.97 845 24.95 27.8 82 15 -1.2 29.8
14:55 1015 29.97 845 24.95 27.5 81.5 15 -1.3 29.7
15:00 1015 29.97 845 24.95 27.6 81.7 16 0.1 32.1
15:05 1015 29.97 845 24.95 27.8 82 17 0.8 33.5
15:10 1015 29.97 844 24.92 28 82.4 15 -0.5 31
15:15 1015 29.97 844 24.92 28.4 83.1 15 -0.3 31.5
15:20 1015 29.97 844 24.92 27.8 82 18 1.6 34.9
15:25 1015 29.97 844 24.92 27.3 81.1 18 0.8 33.5
15:30 1015 29.97 844 24.92 26.7 80.1 18 0.8 33.4
15:35 1015 29.97 844 24.92 26.2 79.1 18 0.3 32.6
15:40 1015 29.97 844 24.92 25.9 78.5 20 1.8 35.2
15:45 1016 30 845 24.95 25 77.1 27 5.2 41.3
15:50 1016 30 845 24.95 23.6 74.5 28 4.5 40.1
15:55 1016 30 845 24.95 23.9 74.9 26 3.5 38.2
16:00 1016 30 845 24.95 24.6 76.4 24 2.7 36.9
16:05 1015 29.97 845 24.95 25.3 77.6 24 3.4 38.1
16:10 1015 29.97 844 24.92 25.7 78.3 20 1.4 34.5
16:15 1015 29.97 844 24.92 26.1 78.9 22 2.7 36.8
16:20 1015 29.97 844 24.92 26.1 78.9 21 2.3 36.1
16:25 1015 29.97 844 24.92 25.9 78.5 21 1.9 35.4
16:30 1015 29.97 844 24.92 26.4 79.4 22 2.9 37.3
16:35 1015 29.97 844 24.92 26.7 80.1 21 3.2 37.7
16:40 1015 29.97 844 24.92 26.9 80.4 19 1.4 34.5
16:45 1014 29.94 844 24.92 26.7 80 17 0.3 32.5
16:50 1014 29.94 844 24.92 26.8 80.3 15 -1.3 29.7
16:55 1014 29.94 843 24.89 27.2 80.9 22 3.9 38.9
17:00 1014 29.94 843 24.89 27.2 81 22 4.1 39.3
17:05 1014 29.94 843 24.89 26.8 80.3 20 2.4 36.2
17:10 1014 29.94 843 24.89 26.5 79.7 22 3.2 37.8
17:15 1014 29.94 843 24.89 26.5 79.7 22 3.2 37.7
17:20 1014 29.94 843 24.89 26.7 80 21 3.1 37.5
17:25 1014 29.94 843 24.89 27.2 80.9 22 4 39.2
17:30 1014 29.94 843 24.89 28.4 83.1 19 2.9 37.3
17:35 1014 29.94 843 24.89 29 84.2 17 2.1 35.8
17:40 1014 29.94 843 24.89 28.2 82.7 20 3.3 37.9
17:45 1014 29.94 843 24.89 28.1 82.6 15 -0.4 31.3
17:50 1014 29.94 843 24.89 28 82.4 18 1.5 34.7
17:55 1014 29.94 843 24.89 27.8 82.1 17 0.7 33.2
18:00 1014 29.94 843 24.89 27.6 81.7 17 1 33.8
18:05 1014 29.94 843 24.89 27.5 81.5 17 0.6 33.2
18:10 1014 29.94 843 24.89 27.3 81.2 20 2.7 36.9
18:15 1014 29.94 843 24.89 27.1 80.8 19 2.1 35.8
18:20 1013 29.91 843 24.89 26.7 80 20 1.9 35.5
18:25 1013 29.91 843 24.89 26.4 79.4 18 0.4 32.7
18:30 1014 29.94 843 24.89 26.3 79.3 20 1.9 35.4
18:35 1014 29.94 843 24.89 25.5 77.8 23 3.3 38
18:40 1014 29.94 843 24.89 24.7 76.5 26 4.4 39.9
18:45 1014 29.94 843 24.89 24.9 76.9 20 0.7 33.3
18:50 1014 29.94 843 24.89 25.6 78 20 1.2 34.2
18:55 1014 29.94 843 24.89 25.7 78.3 22 2.5 36.5
19:00 1014 29.94 843 24.89 25.2 77.4 22 2.4 36.3
19:05 1014 29.94 843 24.89 24.8 76.7 22 2.1 35.9
19:10 1014 29.94 843 24.89 24.7 76.5 23 2.4 36.3
19:15 1013 29.91 843 24.89 24.8 76.6 19 0.2 32.3
19:20 1013 29.91 843 24.89 25.2 77.3 20 0.7 33.3
19:25 1013 29.91 843 24.89 25.3 77.5 19 0.4 32.8
19:30 1014 29.94 843 24.89 25.1 77.1 22 1.9 35.4
19:35 1014 29.94 843 24.89 25.1 77.1 19 0.3 32.6
19:40 1014 29.94 843 24.89 25.4 77.7 21 1.4 34.6
19:45 1013 29.91 843 24.89 25.1 77.3 21 1.4 34.5
19:50 1013 29.91 843 24.89 25 77 20 0.8 33.5
19:55 1013 29.91 843 24.89 25 77 21 1.1 34
20:00 1013 29.91 843 24.89 24.7 76.4 21 1.1 33.9
20:05 1013 29.91 843 24.89 24.5 76 22 1.4 34.6
20:10 1013 29.91 843 24.89 24.4 75.9 23 2.1 35.8
20:15 1013 29.91 843 24.89 24.1 75.4 23 2 35.7
20:20 1013 29.91 842 24.86 23.8 74.9 25 2.7 36.9
20:25 1013 29.91 842 24.86 23.2 73.7 25 2.4 36.3
20:30 1013 29.91 842 24.86 23 73.3 25 2.1 35.7
20:35 1013 29.91 842 24.86 23 73.3 24 1.5 34.8
20:40 1013 29.91 842 24.86 22.9 73.3 24 1.6 34.8
20:45 1013 29.91 843 24.89 22.5 72.4 27 2.5 36.6
20:50 1013 29.91 843 24.89 22.1 71.7 31 4.2 39.5
20:55 1013 29.91 842 24.86 21.4 70.4 36 6 42.8
21:00 1013 29.91 842 24.86 20.8 69.5 39 6.5 43.8
21:05 1013 29.91 842 24.86 20.6 69.1 40 6.9 44.4
21:10 1013 29.91 842 24.86 20.6 69 41 6.9 44.4
21:15 1013 29.91 843 24.89 20.5 68.8 41 6.9 44.3
21:20 1013 29.91 842 24.86 20.4 68.6 41 6.8 44.2
21:25 1013 29.91 842 24.86 20.3 68.5 41 6.7 44.1
21:30 1013 29.91 842 24.86 20.2 68.3 41 6.8 44.3
21:35 1013 29.91 843 24.89 20 68.1 42 7 44.6
21:40 1013 29.91 842 24.86 19.9 67.7 43 7.2 44.9
21:45 1013 29.91 842 24.86 19.7 67.5 44 7.3 45.2
21:50 1013 29.91 842 24.86 19.5 67.2 45 7.5 45.5
21:55 1013 29.91 843 24.89 19.4 66.8 45 7.4 45.2
22:00 1013 29.91 843 24.89 19.1 66.5 45 7.2 45
22:05 1013 29.91 843 24.89 19.1 66.5 47 7.5 45.6
22:10 1013 29.91 843 24.89 19 66.2 47 7.7 45.8
22:15 1013 29.91 843 24.89 18.9 65.9 48 7.8 46
22:20 1013 29.91 843 24.89 18.9 65.9 48 7.7 45.9
22:25 1013 29.91 843 24.89 18.9 65.9 48 7.8 46
22:30 1013 29.91 843 24.89 18.7 65.6 49 7.9 46.1
22:35 1014 29.94 843 24.89 18.6 65.4 49 7.8 46.1
22:40 1013 29.91 843 24.89 18.4 65.1 50 7.8 46.1
22:45 1013 29.91 843 24.89 18.4 65.1 50 7.8 46
22:50 1014 29.94 843 24.89 18.3 65 49 7.6 45.7
22:55 1013 29.91 843 24.89 18.3 64.9 49 7.6 45.7
23:00 1013 29.91 843 24.89 18.3 65 48 7.4 45.2
23:05 1013 29.91 843 24.89 18.2 64.7 50 7.6 45.8
23:10 1013 29.91 843 24.89 18 64.4 50 7.7 45.8
23:15 1013 29.91 843 24.89 17.9 64.2 51 7.7 45.8
23:20 1013 29.91 843 24.89 17.7 63.9 51 7.7 45.9
23:25 1013 29.91 843 24.89 17.5 63.5 52 7.7 45.9
23:30 1013 29.91 843 24.89 17.4 63.3 53 7.7 45.9
23:35 1013 29.91 843 24.89 17.3 63.1 53 7.7 45.9
23:40 1013 29.91 843 24.89 17.1 62.7 54 7.8 46
23:45 1013 29.91 843 24.89 16.9 62.4 54 7.7 45.9
23:50 1013 29.91 843 24.89 16.8 62.2 55 7.7 45.8
23:55 1013 29.91 843 24.89 16.7 62 55 7.6 45.6
24:00 1013 29.91 843 24.89 16.6 61.8 54 7.2 45